Airfield :
LOGIN :

Register | Disclaimer

   EN    FR    IT 

 










Legend :    VFR   Marginal VFR   IFR   Intensive IFR   Very Intensive IFR
Visi :
Ceiling :
>= 8 km
>= 3000ft
5 to 8 km
1000 to 3000 ft
1500m to 5 km
500 to 1000 ft
800 to 1500m
200 to 500 ft
< 800m
< 200 ft
Symbols :   Thunderstorms  Fog  Heavy snow  Heavy precipitations  Wind > 20 kt
SIGMETs :     Misc.  Thunderstorms  Icing  Turbulence  Mountain Waves  Volcanic Ashes






- Airport Elevation : 15 ft
- IATA code : FCO


LIRF - Roma Leonardo da Vinci Fiumicino

CURRENT METAR :
  • 221020Z 22008KT 180V250 CAVOK 30/21 Q1012 NOSIG

EXPIRED METARs :
  • 220950Z 17005KT 130V210 CAVOK 29/21 Q1011 NOSIG
  • 220920Z 24007KT 190V280 CAVOK 29/22 Q1012 NOSIG
  • 220850Z 19004KT 110V270 CAVOK 28/21 Q1011 NOSIG
  • 220820Z VRB04KT CAVOK 28/21 Q1012 NOSIG
  • 220750Z 18004KT 130V240 CAVOK 27/21 Q1012 NOSIG
  • 220720Z 21006KT 160V240 9999 FEW012 27/21 Q1012 NOSIG

TAF TAF LIRF
Valid from the 22 at 06:00 until the 23 at 12:00 UTC


220500Z 2206/2312 VRB04KT 9999 FEW040
BECMG 2208/2210 24012KT
BECMG 2218/2220 VRB04KT
TEMPO 2300/2305 4000 BR
BECMG 2308/2310 24012KT



MET'MAP, your aeronautical weather chart ! - Copyright ORBIFLY December 2007 - Disclaimer

ORBIFLY MET'MAP TEAM :

Programming & Development : Alexandra Zaïnal
Concept & original design : Baudouin d'Aumeries
Assistance for programming : Marc-Olivier Méhu
Technical & hardware support : Manuel Goepfert

Contact : metmap@orbifly.com




SOURCES & CREDITS :

   NOAA